Terminal Aerodrome Forecast
Issued by NWS

Home | Current Version | Previous Version | Text Only | Print | Product List | Glossary On
Versions: 1 2 3 4 5 6 7 8 9 10 11 12 13 14 15 16
688
FTUS44 KLIX 222328
TAFMSY
TAF
KMSY 222328Z 2300/2324 19005KT P6SM FEW035 SCT100
     FM230200 VRB03KT P6SM FEW030 SCT150
     FM231200 VRB05KT P6SM SCT035 BKN110 PROB30 2318/2324 4SM TSRA
      BKN035CB=

USA.gov is the U.S. government's official web portal to all federal, state and local government web resources and services.